South Greensboro, North Carolina
Current Conditions -  °F | °C
As of 4:54 AM on Monday 20 Oct 2014 (Local Time) from KGSO Reporting Station
Scattered Clouds Scattered Clouds  
Wind Chill: 44°   Ceiling: Unl
Heat Index: 44°   Visibility: 10mi
Dew Point: 40°   Wind: 3mph
Humidity: 85%   Direction: 220°SW
Pressure: 30.12"   Gusts: NA
Location:  36°N, 79.7628°W
Report Text: KGSO 200854Z 22003KT 10SM SCT250 07/04 A3012 RMK AO2 SLP196 T00670044 55001
Loading
Personal Weather Stations






























Interactive Weather Map
Tropical Storm Tracking
New forecast layout! Learn more

10-Day Weather Forecast

Advertisements
Track Severe Weather on mobile